createdAt,value
2018-04-10T00:01:22.554Z,93.80
2018-04-10T00:03:50.821Z,94.00
2018-04-10T00:06:19.095Z,93.50
2018-04-10T00:08:47.369Z,95.10
2018-04-10T00:11:15.642Z,95.60
2018-04-10T00:13:43.891Z,95.00
2018-04-10T00:16:11.369Z,95.00
2018-04-10T00:18:39.629Z,96.50
2018-04-10T00:21:07.132Z,96.40
2018-04-10T00:23:34.667Z,96.30
2018-04-10T00:26:02.939Z,96.50
2018-04-10T00:28:31.201Z,96.10
2018-04-10T00:30:59.464Z,95.20
2018-04-10T00:33:27.051Z,95.10
2018-04-10T00:35:55.303Z,95.60
2018-04-10T00:38:22.791Z,95.60
2018-04-10T00:40:51.353Z,95.60
2018-04-10T00:43:19.611Z,95.30
2018-04-10T00:45:47.097Z,95.30
2018-04-10T00:48:14.651Z,95.90
2018-04-10T00:50:43.023Z,95.80
2018-04-10T00:53:23.149Z,96.40
2018-04-10T00:55:50.656Z,96.30
2018-04-10T00:58:18.139Z,97.80
2018-04-10T01:00:45.655Z,97.90
2018-04-10T01:03:13.148Z,97.20
2018-04-10T01:05:40.639Z,96.60
2018-04-10T01:08:08.147Z,96.40
2018-04-10T01:10:35.664Z,96.40
2018-04-10T01:13:03.940Z,96.40
2018-04-10T01:15:32.197Z,97.40
2018-04-10T01:17:59.705Z,97.30
2018-04-10T01:20:27.228Z,98.60
2018-04-10T01:22:55.579Z,98.70
2018-04-10T01:25:23.176Z,98.60
2018-04-10T01:27:50.726Z,99.40
2018-04-10T01:30:18.970Z,99.90
2018-04-10T01:32:46.475Z,99.90
2018-04-10T01:35:13.967Z,99.90
2018-04-10T01:37:41.446Z,99.90
2018-04-10T01:40:08.937Z,99.90
2018-04-10T01:42:36.437Z,99.90
2018-04-10T01:45:03.913Z,99.90
2018-04-10T01:47:31.393Z,99.90
2018-04-10T01:49:59.661Z,99.40
2018-04-10T01:52:27.900Z,99.10
2018-04-10T01:54:56.939Z,99.60
2018-04-10T01:57:25.209Z,98.70
2018-04-10T01:59:53.449Z,98.90
2018-04-10T02:02:20.951Z,98.90
2018-04-10T02:04:48.439Z,99.30
2018-04-10T02:07:15.957Z,99.50
2018-04-10T02:09:44.215Z,98.90
2018-04-10T02:12:12.471Z,98.60
2018-04-10T02:14:39.975Z,98.50
2018-04-10T02:17:07.480Z,98.60
2018-04-10T02:19:34.995Z,98.60
2018-04-10T02:22:02.514Z,98.60
2018-04-10T02:24:30.767Z,98.90
2018-04-10T02:26:58.304Z,98.90
2018-04-10T02:29:25.828Z,99.30
2018-04-10T02:31:53.370Z,99.90
2018-04-10T02:34:21.609Z,99.90
2018-04-10T02:36:49.109Z,99.90
2018-04-10T02:39:17.349Z,99.90
2018-04-10T02:41:44.860Z,99.90
2018-04-10T02:44:12.347Z,99.90
2018-04-10T02:46:39.838Z,99.90
2018-04-10T02:49:08.132Z,99.90
2018-04-10T02:51:35.624Z,99.90
2018-04-10T02:54:03.127Z,99.90
2018-04-10T02:56:31.409Z,99.90
2018-04-10T02:58:59.665Z,99.90
2018-04-10T03:01:27.159Z,99.90
2018-04-10T03:03:54.668Z,99.90
2018-04-10T03:06:22.159Z,99.90
2018-04-10T03:08:50.419Z,99.90
2018-04-10T03:11:18.734Z,99.90
2018-04-10T03:13:46.245Z,99.90
2018-04-10T03:16:13.817Z,99.90
2018-04-10T03:18:42.086Z,99.90
2018-04-10T03:21:10.354Z,99.90
2018-04-10T03:23:37.851Z,99.90
2018-04-10T03:26:05.334Z,99.90
2018-04-10T03:28:32.826Z,99.90
2018-04-10T03:31:01.115Z,99.90
2018-04-10T03:33:29.370Z,99.90
2018-04-10T03:35:56.864Z,99.90
2018-04-10T03:38:24.398Z,99.90
2018-04-10T03:40:52.651Z,99.90
2018-04-10T03:43:20.143Z,99.90
2018-04-10T03:45:47.649Z,99.90
2018-04-10T03:48:15.125Z,99.90
2018-04-10T03:50:42.707Z,99.90
2018-04-10T03:53:10.972Z,99.90
2018-04-10T03:55:39.234Z,99.90
2018-04-10T03:58:06.819Z,99.90
2018-04-10T04:00:34.317Z,99.90
2018-04-10T04:03:01.811Z,99.90
2018-04-10T04:05:30.090Z,99.90
2018-04-10T04:07:58.374Z,99.90
2018-04-10T04:10:26.635Z,99.90
2018-04-10T04:12:54.887Z,99.90
2018-04-10T04:15:22.392Z,99.90
2018-04-10T04:17:49.884Z,99.90
2018-04-10T04:20:29.046Z,99.90
2018-04-10T04:22:56.544Z,99.90
2018-04-10T04:25:24.022Z,99.90
2018-04-10T04:27:51.533Z,99.90
2018-04-10T04:30:19.793Z,99.90
2018-04-10T04:32:48.073Z,99.90
2018-04-10T04:35:16.363Z,99.90
2018-04-10T04:37:43.859Z,99.90
2018-04-10T04:40:11.349Z,99.90
2018-04-10T04:42:38.839Z,99.90
2018-04-10T04:45:06.335Z,99.90
2018-04-10T04:47:33.852Z,99.90
2018-04-10T04:50:01.350Z,99.90
2018-04-10T04:52:28.852Z,99.90
2018-04-10T04:54:57.267Z,99.90
2018-04-10T04:57:24.787Z,99.90
2018-04-10T04:59:53.071Z,99.90
2018-04-10T05:02:20.563Z,99.90
2018-04-10T05:04:48.067Z,99.90
2018-04-10T05:07:16.356Z,99.90
2018-04-10T05:09:43.847Z,99.90
2018-04-10T05:12:11.351Z,99.90
2018-04-10T05:14:39.661Z,99.90
2018-04-10T05:17:07.152Z,99.90
2018-04-10T05:19:34.628Z,99.90
2018-04-10T05:22:02.147Z,99.90
2018-04-10T05:24:29.666Z,99.90
2018-04-10T05:26:57.917Z,98.80
2018-04-10T05:29:25.409Z,98.70
2018-04-10T05:31:52.909Z,99.20
2018-04-10T05:34:20.393Z,99.30
2018-04-10T05:36:48.667Z,99.00
2018-04-10T05:39:16.917Z,99.80
2018-04-10T05:41:44.425Z,99.80
2018-04-10T05:44:11.932Z,99.70
2018-04-10T05:46:39.459Z,97.70
2018-04-10T05:49:06.979Z,97.30
2018-04-10T05:51:35.229Z,96.70
2018-04-10T05:54:02.810Z,96.60
2018-04-10T05:56:31.085Z,96.40
2018-04-10T05:58:59.370Z,96.40
2018-04-10T06:01:26.948Z,96.40
2018-04-10T06:03:54.479Z,95.80
2018-04-10T06:06:22.734Z,95.30
2018-04-10T06:08:50.209Z,95.30
2018-04-10T06:11:18.465Z,94.50
2018-04-10T06:13:45.991Z,94.50
2018-04-10T06:16:13.464Z,94.20
2018-04-10T06:18:40.979Z,93.90
2018-04-10T06:21:08.514Z,93.40
2018-04-10T06:23:36.779Z,92.10
2018-04-10T06:26:05.180Z,91.90
2018-04-10T06:28:32.728Z,91.90
2018-04-10T06:31:00.303Z,90.20
2018-04-10T06:33:27.791Z,88.60
2018-04-10T06:35:55.300Z,88.00
2018-04-10T06:38:22.862Z,85.10
2018-04-10T06:40:50.366Z,83.50
2018-04-10T06:43:17.871Z,83.70
2018-04-10T06:45:45.389Z,80.00
2018-04-10T06:48:12.915Z,78.80
2018-04-10T06:50:40.424Z,79.30
2018-04-10T06:53:08.687Z,79.80
2018-04-10T06:55:36.181Z,79.00
2018-04-10T06:58:03.734Z,78.90
2018-04-10T07:00:31.241Z,82.60
2018-04-10T07:02:58.752Z,84.10
2018-04-10T07:05:26.268Z,86.00
2018-04-10T07:07:53.855Z,86.10
2018-04-10T07:10:21.881Z,87.20
2018-04-10T07:12:49.388Z,89.00
2018-04-10T07:15:16.887Z,90.30
2018-04-10T07:17:44.414Z,91.10
2018-04-10T07:20:11.915Z,91.40
2018-04-10T07:22:39.530Z,92.00
2018-04-10T07:25:07.030Z,92.40
2018-04-10T07:27:34.541Z,93.50
2018-04-10T07:30:02.039Z,93.90
2018-04-10T07:32:29.559Z,94.10
2018-04-10T07:34:57.081Z,94.20
2018-04-10T07:37:25.350Z,94.90
2018-04-10T07:39:53.616Z,95.20
2018-04-10T07:42:21.195Z,95.10
2018-04-10T07:44:49.444Z,96.00
2018-04-10T07:47:16.935Z,96.00
2018-04-10T07:49:44.456Z,96.10
2018-04-10T07:52:12.053Z,96.40
2018-04-10T07:54:39.555Z,97.00
2018-04-10T07:57:07.041Z,96.40
2018-04-10T07:59:35.305Z,97.10
2018-04-10T08:02:02.803Z,97.10
2018-04-10T08:04:30.293Z,97.30
2018-04-10T08:06:57.908Z,96.30
2018-04-10T08:09:25.462Z,97.00
2018-04-10T08:11:53.730Z,96.80
2018-04-10T08:14:22.019Z,97.00
2018-04-10T08:16:49.575Z,97.00
2018-04-10T08:19:17.071Z,96.80
2018-04-10T08:21:44.595Z,96.90
2018-04-10T08:24:12.109Z,96.90
2018-04-10T08:26:39.642Z,96.70
2018-04-10T08:29:07.158Z,97.20
2018-04-10T08:31:34.714Z,97.40
2018-04-10T08:34:02.213Z,97.50
2018-04-10T08:36:29.713Z,97.50
2018-04-10T08:38:58.087Z,96.70
2018-04-10T08:41:26.337Z,97.10
2018-04-10T08:43:53.851Z,97.10
2018-04-10T08:46:21.391Z,97.00
2018-04-10T08:48:48.891Z,96.70
2018-04-10T08:51:16.397Z,96.70
2018-04-10T08:53:44.675Z,97.30
2018-04-10T08:56:12.256Z,97.30
2018-04-10T08:58:39.795Z,97.10
2018-04-10T09:01:07.320Z,97.60
2018-04-10T09:03:34.921Z,97.40
2018-04-10T09:06:02.419Z,96.40
2018-04-10T09:08:30.025Z,96.90
2018-04-10T09:10:57.612Z,96.30
2018-04-10T09:13:25.121Z,96.20
2018-04-10T09:15:53.384Z,96.90
2018-04-10T09:18:20.890Z,96.80
2018-04-10T09:20:48.382Z,96.20
2018-04-10T09:23:15.866Z,96.40
2018-04-10T09:25:44.126Z,96.30
2018-04-10T09:28:11.640Z,96.20
2018-04-10T09:30:39.139Z,96.50
2018-04-10T09:33:06.721Z,95.60
2018-04-10T09:35:34.971Z,96.60
2018-04-10T09:38:02.465Z,96.60
2018-04-10T09:40:29.955Z,96.10
2018-04-10T09:42:57.450Z,96.30
2018-04-10T09:45:24.944Z,96.20
2018-04-10T09:47:52.446Z,95.60
2018-04-10T09:50:19.963Z,95.90
2018-04-10T09:52:47.471Z,95.70
2018-04-10T09:55:14.975Z,95.70
2018-04-10T09:57:42.476Z,95.50
2018-04-10T10:00:10.080Z,95.20
2018-04-10T10:02:37.599Z,94.80
2018-04-10T10:05:05.086Z,94.80
2018-04-10T10:07:33.467Z,95.40
2018-04-10T10:10:00.977Z,95.40
2018-04-10T10:12:28.584Z,95.10
2018-04-10T10:14:56.104Z,95.20
2018-04-10T10:17:23.598Z,95.20
2018-04-10T10:19:51.129Z,94.90
2018-04-10T10:22:19.427Z,93.50
2018-04-10T10:24:46.922Z,93.50
2018-04-10T10:27:14.445Z,93.60
2018-04-10T10:29:41.993Z,94.40
2018-04-10T10:32:09.557Z,94.10
2018-04-10T10:34:37.057Z,93.30
2018-04-10T10:37:04.559Z,93.30
2018-04-10T10:39:32.827Z,92.90
2018-04-10T10:42:01.107Z,93.00
2018-04-10T10:44:29.363Z,92.80
2018-04-10T10:46:56.896Z,92.80
2018-04-10T10:49:24.404Z,92.30
2018-04-10T10:51:52.678Z,92.20
2018-04-10T10:54:20.930Z,91.30
2018-04-10T10:56:48.419Z,91.30
2018-04-10T10:59:15.921Z,90.70
2018-04-10T11:01:43.526Z,90.20
2018-04-10T11:04:11.101Z,91.00
2018-04-10T11:06:38.600Z,91.00
2018-04-10T11:09:07.128Z,91.10
2018-04-10T11:11:34.627Z,89.90
2018-04-10T11:14:02.198Z,89.10
2018-04-10T11:16:29.692Z,90.00
2018-04-10T11:18:57.195Z,88.60
2018-04-10T11:21:24.691Z,87.80
2018-04-10T11:23:52.952Z,87.80
2018-04-10T11:26:20.533Z,87.90
2018-04-10T11:28:48.778Z,86.60
2018-04-10T11:31:16.368Z,86.40
2018-04-10T11:33:44.660Z,86.80
2018-04-10T11:36:12.203Z,86.90
2018-04-10T11:38:40.453Z,90.20
2018-04-10T11:41:08.722Z,90.00
2018-04-10T11:43:36.223Z,90.00
2018-04-10T11:46:03.744Z,90.50
2018-04-10T11:48:31.251Z,90.70
2018-04-10T11:50:58.780Z,91.10
2018-04-10T11:53:26.286Z,90.80
2018-04-10T11:55:53.781Z,90.60
2018-04-10T11:58:22.180Z,90.40
2018-04-10T12:00:49.669Z,90.30
2018-04-10T12:03:17.175Z,90.40
2018-04-10T12:05:45.577Z,90.60
2018-04-10T12:08:13.090Z,90.60
2018-04-10T12:10:41.386Z,90.60
2018-04-10T12:13:09.653Z,90.20
2018-04-10T12:15:37.910Z,88.60
2018-04-10T12:18:05.435Z,88.50
2018-04-10T12:20:32.925Z,87.90
2018-04-10T12:23:00.413Z,89.40
2018-04-10T12:25:28.075Z,90.00
2018-04-10T12:27:55.606Z,90.10
2018-04-10T12:30:23.101Z,90.00
2018-04-10T12:32:51.663Z,88.60
2018-04-10T12:35:19.939Z,90.40
2018-04-10T12:37:47.517Z,90.40
2018-04-10T12:40:15.012Z,90.20
2018-04-10T12:42:42.519Z,87.60
2018-04-10T12:45:10.030Z,90.10
2018-04-10T12:47:37.521Z,90.10
2018-04-10T12:50:05.786Z,90.30
2018-04-10T12:52:34.052Z,89.90
2018-04-10T12:55:02.454Z,89.30
2018-04-10T12:57:30.007Z,89.30
2018-04-10T12:59:57.585Z,90.00
2018-04-10T13:02:25.089Z,90.20
2018-04-10T13:04:52.596Z,90.70
2018-04-10T13:07:20.104Z,89.80
2018-04-10T13:09:47.715Z,89.30
2018-04-10T13:12:15.212Z,90.00
2018-04-10T13:14:42.698Z,90.80
2018-04-10T13:17:10.972Z,88.90
2018-04-10T13:19:39.254Z,88.50
2018-04-10T13:22:07.527Z,89.20
2018-04-10T13:24:35.785Z,88.50
2018-04-10T13:27:04.068Z,88.60
2018-04-10T13:29:32.318Z,88.60
2018-04-10T13:31:59.901Z,88.60
2018-04-10T13:34:28.163Z,87.20
2018-04-10T13:36:55.642Z,87.20
2018-04-10T13:39:23.174Z,86.90
2018-04-10T13:41:50.753Z,85.60
2018-04-10T13:44:19.023Z,86.90
2018-04-10T13:46:47.277Z,86.30
2018-04-10T13:49:14.847Z,86.00
2018-04-10T13:51:43.133Z,84.80
2018-04-10T13:54:11.646Z,84.30
2018-04-10T13:56:39.134Z,84.30
2018-04-10T13:59:06.606Z,84.60
2018-04-10T14:01:34.119Z,85.10
2018-04-10T14:04:01.597Z,83.70
2018-04-10T14:06:29.201Z,82.10
2018-04-10T14:08:57.446Z,81.80
2018-04-10T14:11:24.964Z,81.70
2018-04-10T14:13:52.495Z,81.30
2018-04-10T14:16:20.037Z,81.40
2018-04-10T14:18:48.282Z,80.70
2018-04-10T14:21:15.757Z,80.50
2018-04-10T14:23:43.263Z,78.60
2018-04-10T14:26:10.744Z,77.40
2018-04-10T14:28:38.233Z,77.10
2018-04-10T14:31:06.490Z,74.80
2018-04-10T14:33:34.773Z,74.90
2018-04-10T14:36:02.259Z,75.00
2018-04-10T14:38:29.763Z,74.60
2018-04-10T14:40:57.286Z,73.60
2018-04-10T14:43:24.783Z,74.30
2018-04-10T14:45:52.406Z,73.40
2018-04-10T14:48:19.912Z,75.70
2018-04-10T14:50:47.426Z,75.30
2018-04-10T14:53:14.996Z,75.70
2018-04-10T14:55:42.527Z,75.20
2018-04-10T14:58:10.009Z,76.10
2018-04-10T15:00:37.510Z,73.40
2018-04-10T15:03:05.784Z,71.10
2018-04-10T15:05:34.035Z,70.50
2018-04-10T15:08:02.351Z,72.30
2018-04-10T15:10:29.907Z,72.30
2018-04-10T15:12:57.483Z,71.60
2018-04-10T15:15:24.984Z,72.10
2018-04-10T15:17:52.465Z,73.10
2018-04-10T15:20:20.722Z,71.90
2018-04-10T15:22:48.205Z,71.80
2018-04-10T15:25:16.473Z,70.90
2018-04-10T15:27:44.731Z,71.80
2018-04-10T15:30:12.323Z,71.70
2018-04-10T15:32:39.801Z,70.40
2018-04-10T15:35:07.417Z,71.90
2018-04-10T15:37:35.706Z,74.10
2018-04-10T15:40:03.194Z,74.00
2018-04-10T15:42:30.685Z,73.20
2018-04-10T15:44:58.297Z,72.40
2018-04-10T15:47:25.887Z,72.40
2018-04-10T15:49:53.380Z,73.20
2018-04-10T15:52:21.635Z,74.60
2018-04-10T15:54:49.213Z,74.40
2018-04-10T15:57:17.463Z,71.80
2018-04-10T15:59:44.955Z,71.80
2018-04-10T16:02:12.463Z,72.20
2018-04-10T16:04:40.072Z,71.20
2018-04-10T16:07:07.567Z,71.80
2018-04-10T16:09:35.062Z,71.50
2018-04-10T16:12:03.315Z,73.00
2018-04-10T16:14:30.813Z,73.00
2018-04-10T16:16:59.061Z,73.40
2018-04-10T16:19:26.665Z,73.40
2018-04-10T16:21:54.184Z,73.70
2018-04-10T16:24:22.444Z,76.30
2018-04-10T16:26:49.963Z,76.30
2018-04-10T16:29:17.499Z,77.10
2018-04-10T16:31:45.067Z,78.40
2018-04-10T16:34:12.553Z,78.60
2018-04-10T16:36:40.043Z,80.70
2018-04-10T16:39:08.336Z,80.20
2018-04-10T16:41:35.821Z,80.00
2018-04-10T16:44:03.316Z,80.40
2018-04-10T16:46:30.793Z,80.80
2018-04-10T16:48:59.069Z,82.20
2018-04-10T16:51:27.355Z,81.50
2018-04-10T16:53:54.912Z,82.10
2018-04-10T16:56:22.403Z,82.30
2018-04-10T16:58:49.885Z,82.90
2018-04-10T17:01:17.385Z,83.40
2018-04-10T17:03:44.881Z,83.00
2018-04-10T17:06:12.371Z,83.10
2018-04-10T17:08:39.869Z,83.50
2018-04-10T17:11:07.373Z,84.40
2018-04-10T17:13:34.957Z,85.00
2018-04-10T17:16:03.230Z,85.60
2018-04-10T17:18:31.536Z,86.40
2018-04-10T17:20:59.009Z,86.40
2018-04-10T17:23:26.503Z,86.80
2018-04-10T17:25:54.033Z,87.00
2018-04-10T17:28:21.522Z,87.50
2018-04-10T17:30:49.794Z,87.70
2018-04-10T17:33:18.114Z,88.10
2018-04-10T17:35:45.613Z,88.00
2018-04-10T17:38:13.117Z,88.90
2018-04-10T17:40:40.593Z,88.80
2018-04-10T17:43:08.100Z,88.80
2018-04-10T17:45:36.368Z,88.90
2018-04-10T17:48:03.861Z,88.90
2018-04-10T17:50:31.407Z,88.80
2018-04-10T17:52:58.921Z,88.90
2018-04-10T17:55:26.642Z,89.30
2018-04-10T17:57:54.199Z,89.60
2018-04-10T18:00:21.707Z,89.80
2018-04-10T18:02:49.185Z,90.40
2018-04-10T18:05:17.486Z,90.10
2018-04-10T18:07:44.974Z,90.10
2018-04-10T18:10:12.496Z,90.70
2018-04-10T18:12:39.977Z,90.70
2018-04-10T18:15:07.514Z,90.40
2018-04-10T18:17:35.037Z,90.70
2018-04-10T18:20:03.321Z,90.80
2018-04-10T18:22:31.571Z,91.40
2018-04-10T18:24:59.875Z,91.10
2018-04-10T18:27:28.139Z,91.10
2018-04-10T18:29:56.394Z,91.10
2018-04-10T18:32:23.887Z,91.10
2018-04-10T18:34:51.447Z,91.20
2018-04-10T18:37:18.993Z,91.50
2018-04-10T18:39:47.249Z,91.50
2018-04-10T18:42:14.727Z,91.50
2018-04-10T18:44:42.983Z,91.80
2018-04-10T18:47:11.234Z,92.80
2018-04-10T18:49:38.823Z,92.80
2018-04-10T18:52:07.084Z,92.70
2018-04-10T18:54:34.657Z,92.70
2018-04-10T18:57:02.923Z,91.90
2018-04-10T18:59:31.336Z,92.70
2018-04-10T19:01:58.876Z,92.70
2018-04-10T19:04:27.137Z,93.70
2018-04-10T19:06:55.401Z,93.30
2018-04-10T19:09:22.896Z,93.30
2018-04-10T19:11:50.407Z,92.80
2018-04-10T19:14:17.995Z,92.40
2018-04-10T19:16:45.493Z,92.70
2018-04-10T19:19:12.970Z,93.00
2018-04-10T19:21:40.571Z,93.80
2018-04-10T19:24:08.064Z,94.50
2018-04-10T19:26:35.548Z,95.40
2018-04-10T19:29:03.041Z,96.40
2018-04-10T19:31:30.551Z,97.00
2018-04-10T19:33:58.045Z,97.40
2018-04-10T19:36:26.314Z,98.20
2018-04-10T19:38:54.599Z,98.80
2018-04-10T19:41:22.116Z,98.80
2018-04-10T19:43:50.431Z,99.70
2018-04-10T19:46:18.698Z,99.90
2018-04-10T19:48:46.999Z,99.90
2018-04-10T19:51:14.491Z,99.90
2018-04-10T19:53:41.979Z,99.90
2018-04-10T19:56:10.249Z,99.90
2018-04-10T19:58:38.525Z,99.90
2018-04-10T20:01:06.785Z,99.90
2018-04-10T20:03:34.369Z,99.90
2018-04-10T20:06:02.625Z,99.90
2018-04-10T20:08:30.112Z,99.90
2018-04-10T20:10:57.639Z,99.90
2018-04-10T20:13:25.127Z,99.90
2018-04-10T20:15:52.617Z,99.90
2018-04-10T20:18:20.106Z,99.90
2018-04-10T20:20:47.595Z,99.90
2018-04-10T20:23:15.151Z,99.90
2018-04-10T20:25:42.634Z,99.90
2018-04-10T20:28:10.135Z,99.90
2018-04-10T20:30:37.631Z,99.90
2018-04-10T20:33:05.161Z,99.90
2018-04-10T20:35:33.441Z,99.90
2018-04-10T20:38:01.719Z,99.90
2018-04-10T20:40:29.965Z,99.90
2018-04-10T20:42:57.549Z,99.90
2018-04-10T20:45:25.920Z,99.90
2018-04-10T20:47:54.183Z,99.90
2018-04-10T20:50:21.711Z,99.90
2018-04-10T20:52:49.214Z,99.90
2018-04-10T20:55:17.494Z,99.90
2018-04-10T20:57:44.990Z,99.90
2018-04-10T21:00:12.494Z,99.90
2018-04-10T21:02:40.767Z,99.90
2018-04-10T21:05:09.013Z,99.90
2018-04-10T21:07:36.510Z,99.90
2018-04-10T21:10:04.764Z,99.90
2018-04-10T21:12:32.358Z,99.90
2018-04-10T21:14:59.849Z,99.90
2018-04-10T21:17:27.325Z,99.90
2018-04-10T21:19:54.848Z,99.90
2018-04-10T21:22:22.386Z,99.90
2018-04-10T21:24:49.892Z,99.90
2018-04-10T21:27:17.387Z,99.90
2018-04-10T21:29:44.939Z,99.90
2018-04-10T21:32:13.197Z,99.90
2018-04-10T21:34:40.687Z,99.90
2018-04-10T21:37:08.199Z,99.90
2018-04-10T21:39:35.790Z,99.90
2018-04-10T21:42:03.368Z,99.90
2018-04-10T21:44:30.878Z,99.90
2018-04-10T21:46:58.373Z,99.90
2018-04-10T21:49:25.880Z,99.90
2018-04-10T21:51:53.470Z,99.90
2018-04-10T21:54:21.730Z,99.90
2018-04-10T21:56:49.227Z,99.90
2018-04-10T21:59:16.753Z,99.90
2018-04-10T22:01:45.014Z,99.90
2018-04-10T22:04:12.506Z,99.90
2018-04-10T22:06:40.011Z,99.90
2018-04-10T22:09:07.539Z,99.90
2018-04-10T22:11:35.061Z,99.90
2018-04-10T22:14:03.364Z,99.90
2018-04-10T22:16:30.848Z,99.90
2018-04-10T22:18:58.359Z,99.90
2018-04-10T22:21:25.919Z,99.90
2018-04-10T22:23:53.411Z,99.90
2018-04-10T22:26:20.890Z,99.90
2018-04-10T22:28:48.396Z,99.90
2018-04-10T22:31:15.934Z,99.90
2018-04-10T22:33:43.427Z,99.90
2018-04-10T22:36:10.922Z,99.90
2018-04-10T22:38:38.470Z,99.90
2018-04-10T22:41:06.750Z,99.90
2018-04-10T22:43:35.010Z,99.90
2018-04-10T22:46:03.304Z,99.90
2018-04-10T22:48:30.825Z,99.90
2018-04-10T22:50:58.406Z,99.90
2018-04-10T22:53:26.671Z,99.90
2018-04-10T22:55:54.941Z,99.90
2018-04-10T22:58:22.436Z,99.90
2018-04-10T23:00:49.990Z,99.90
2018-04-10T23:11:52.477Z,99.90
2018-04-10T23:14:40.647Z,99.90
2018-04-10T23:17:08.937Z,99.90
2018-04-10T23:19:37.203Z,99.90
2018-04-10T23:22:05.487Z,99.90
2018-04-10T23:24:33.758Z,99.90
2018-04-10T23:27:02.035Z,99.90
2018-04-10T23:29:30.298Z,99.90
2018-04-10T23:31:57.821Z,99.90
2018-04-10T23:34:25.333Z,99.90
2018-04-10T23:36:53.596Z,99.90
2018-04-10T23:39:21.182Z,99.90
2018-04-10T23:41:48.692Z,99.90
2018-04-10T23:44:16.213Z,99.90
2018-04-10T23:46:43.756Z,99.90
2018-04-10T23:49:11.282Z,99.90
2018-04-10T23:51:38.784Z,99.90
2018-04-10T23:54:06.309Z,99.90
2018-04-10T23:56:34.615Z,99.90
2018-04-10T23:59:02.114Z,99.90
